Time,TemperatureF,DewpointF,PressureIn,WindDirection,WindDirectionDegrees,WindSpeedMPH,WindSpeedGustMPH,Humidity,HourlyPrecipIn,Conditions,Clouds,dailyrainin,SoftwareType,DateUTC
2013-12-13 00:03:00,16.7,12.7,30.14,WSW,257,3.0,12.0,84,0.00,CLR,,0.00,WeatherDisplay:10.37,2013-12-13 06:03:00,
2013-12-13 00:13:00,16.0,12.3,30.13,WSW,250,0.0,7.0,85,0.00,CLR,,0.00,WeatherDisplay:10.37,2013-12-13 06:13:00,
2013-12-13 00:23:00,15.4,11.7,30.12,SW,225,0.0,2.0,85,0.00,CLR,,0.00,WeatherDisplay:10.37,2013-12-13 06:23:00,
2013-12-13 00:33:00,15.1,11.7,30.13,WNW,286,2.0,5.0,86,0.00,CLR,,0.00,WeatherDisplay:10.37,2013-12-13 06:33:00,
2013-12-13 00:43:00,15.3,12.1,30.13,WNW,300,2.0,5.0,87,0.00,CLR,,0.00,WeatherDisplay:10.37,2013-12-13 06:43:00,
2013-12-13 00:53:00,15.3,12.1,30.12,WSW,246,3.0,6.0,87,0.00,CLR,,0.00,WeatherDisplay:10.37,2013-12-13 06:53:00,
2013-12-13 01:03:00,15.3,12.1,30.12,SW,228,1.0,6.0,87,0.00,CLR,,0.00,WeatherDisplay:10.37,2013-12-13 07:03:00,
2013-12-13 01:13:00,14.7,11.3,30.12,SW,225,0.0,3.0,86,0.00,CLR,,0.00,WeatherDisplay:10.37,2013-12-13 07:13:00,
2013-12-13 01:23:00,14.2,11.0,30.12,SW,225,0.0,2.0,87,0.00,CLR,,0.00,WeatherDisplay:10.37,2013-12-13 07:23:00,
2013-12-13 01:33:00,14.0,10.8,30.11,SW,223,0.0,3.0,87,0.00,CLR,,0.00,WeatherDisplay:10.37,2013-12-13 07:33:00,
2013-12-13 01:43:00,13.8,11.2,30.12,SE,140,1.0,5.0,89,0.00,CLR,,0.00,WeatherDisplay:10.37,2013-12-13 07:43:00,
2013-12-13 01:53:00,13.5,11.1,30.12,SSE,148,1.0,5.0,90,0.00,CLR,,0.00,WeatherDisplay:10.37,2013-12-13 07:53:00,
2013-12-13 02:03:00,13.3,11.1,30.12,SE,135,1.0,3.0,91,0.00,CLR,,0.00,WeatherDisplay:10.37,2013-12-13 08:03:00,
2013-12-13 02:13:00,13.5,11.3,30.12,SE,135,0.0,3.0,91,0.00,CLR,,0.00,WeatherDisplay:10.37,2013-12-13 08:13:00,
2013-12-13 02:23:00,13.6,11.5,30.12,SSE,161,0.0,2.0,91,0.00,CLR,,0.00,WeatherDisplay:10.37,2013-12-13 08:23:00,
2013-12-13 02:33:00,14.0,11.9,30.12,SSE,165,0.0,5.0,91,0.00,CLR,,0.00,WeatherDisplay:10.37,2013-12-13 08:33:00,
2013-12-13 02:43:00,14.2,12.0,30.12,SSW,192,0.0,5.0,91,0.00,CLR,,0.00,WeatherDisplay:10.37,2013-12-13 08:43:00,
2013-12-13 02:53:00,14.4,12.2,30.10,SSE,152,0.0,3.0,91,0.00,CLR,,0.00,WeatherDisplay:10.37,2013-12-13 08:53:00,
2013-12-13 03:03:00,14.4,12.2,30.11,SE,128,0.0,1.0,91,0.00,CLR,,0.00,WeatherDisplay:10.37,2013-12-13 09:03:00,
2013-12-13 03:13:00,14.4,12.2,30.11,SSE,155,1.0,5.0,91,0.00,CLR,,0.00,WeatherDisplay:10.37,2013-12-13 09:13:00,
2013-12-13 03:23:00,14.0,11.9,30.10,SSE,147,1.0,6.0,91,0.00,CLR,,0.00,WeatherDisplay:10.37,2013-12-13 09:23:00,
2013-12-13 03:33:00,13.6,11.5,30.10,SSE,154,1.0,5.0,91,0.00,CLR,,0.00,WeatherDisplay:10.37,2013-12-13 09:33:00,
2013-12-13 03:43:00,13.1,11.0,30.10,SSE,151,2.0,7.0,91,0.00,CLR,,0.00,WeatherDisplay:10.37,2013-12-13 09:43:00,
2013-12-13 03:53:00,13.1,11.2,30.10,SSE,159,1.0,3.0,92,0.00,CLR,,0.00,WeatherDisplay:10.37,2013-12-13 09:53:00,
2013-12-13 04:03:00,13.1,11.2,30.10,SE,143,1.0,5.0,92,0.00,CLR,,0.00,WeatherDisplay:10.37,2013-12-13 10:03:00,
2013-12-13 04:13:00,13.5,11.6,30.10,SE,128,1.0,3.0,92,0.00,CLR,,0.00,WeatherDisplay:10.37,2013-12-13 10:13:00,
2013-12-13 04:23:00,13.5,11.9,30.11,SE,135,0.0,2.0,93,0.00,CLR,,0.00,WeatherDisplay:10.37,2013-12-13 10:23:00,
2013-12-13 04:33:00,13.9,12.0,30.10,SE,135,1.0,2.0,92,0.00,CLR,,0.00,WeatherDisplay:10.37,2013-12-13 10:33:00,
2013-12-13 04:43:00,13.8,11.9,30.11,SE,135,0.0,3.0,92,0.00,CLR,,0.00,WeatherDisplay:10.37,2013-12-13 10:43:00,
2013-12-13 04:53:00,13.8,11.9,30.11,SE,142,1.0,3.0,92,0.00,CLR,,0.00,WeatherDisplay:10.37,2013-12-13 10:53:00,
2013-12-13 05:03:00,14.0,12.1,30.11,ENE,78,1.0,5.0,92,0.00,CLR,,0.00,WeatherDisplay:10.37,2013-12-13 11:03:00,
2013-12-13 05:13:00,14.1,12.4,30.11,East,99,1.0,5.0,93,0.00,CLR,,0.00,WeatherDisplay:10.37,2013-12-13 11:13:00,
2013-12-13 05:23:00,14.4,12.7,30.11,ENE,64,1.0,2.0,93,0.00,CLR,,0.00,WeatherDisplay:10.37,2013-12-13 11:23:00,
2013-12-13 05:33:00,14.4,12.8,30.11,SE,135,0.0,5.0,93,0.00,CLR,,0.00,WeatherDisplay:10.37,2013-12-13 11:33:00,
2013-12-13 05:43:00,14.5,12.9,30.11,SE,135,0.0,0.0,93,0.00,CLR,,0.00,WeatherDisplay:10.37,2013-12-13 11:43:00,
2013-12-13 05:53:00,14.4,12.5,30.11,SE,135,0.0,0.0,92,0.00,CLR,,0.00,WeatherDisplay:10.37,2013-12-13 11:53:00,
2013-12-13 06:03:00,14.4,12.7,30.12,SE,135,0.0,0.0,93,0.00,CLR,,0.00,WeatherDisplay:10.37,2013-12-13 12:03:00,
2013-12-13 06:13:00,14.4,12.7,30.12,SE,135,0.0,0.0,93,0.00,CLR,,0.00,WeatherDisplay:10.37,2013-12-13 12:13:00,
2013-12-13 06:23:00,14.5,12.9,30.12,ENE,77,1.0,2.0,93,0.00,CLR,,0.00,WeatherDisplay:10.37,2013-12-13 12:23:00,
2013-12-13 06:33:00,14.7,13.1,30.12,ESE,114,1.0,3.0,93,0.00,CLR,,0.00,WeatherDisplay:10.37,2013-12-13 12:33:00,
2013-12-13 06:43:00,14.5,12.9,30.13,SE,135,1.0,3.0,93,0.00,CLR,,0.00,WeatherDisplay:10.37,2013-12-13 12:43:00,
2013-12-13 06:53:00,14.7,13.1,30.13,NE,45,0.0,2.0,93,0.00,CLR,,0.00,WeatherDisplay:10.37,2013-12-13 12:53:00,
2013-12-13 07:03:00,14.5,12.9,30.13,NE,45,1.0,3.0,93,0.00,CLR,,0.00,WeatherDisplay:10.37,2013-12-13 13:03:00,
2013-12-13 07:13:00,14.4,12.7,30.13,NE,45,2.0,3.0,93,0.00,CLR,,0.00,WeatherDisplay:10.37,2013-12-13 13:13:00,
2013-12-13 07:23:00,14.5,12.9,30.13,ENE,73,2.0,5.0,93,0.00,CLR,,0.00,WeatherDisplay:10.37,2013-12-13 13:23:00,
2013-12-13 07:33:00,14.5,12.9,30.13,NE,50,1.0,3.0,93,0.00,CLR,,0.00,WeatherDisplay:10.37,2013-12-13 13:33:00,
2013-12-13 07:43:00,14.5,12.9,30.13,East,83,3.0,7.0,93,0.00,CLR,,0.00,WeatherDisplay:10.37,2013-12-13 13:43:00,
2013-12-13 07:53:00,14.9,12.9,30.13,ENE,68,1.0,3.0,92,0.00,CLR,,0.00,WeatherDisplay:10.37,2013-12-13 13:53:00,
2013-12-13 08:03:00,15.3,13.4,30.13,NE,47,1.0,3.0,92,0.00,CLR,,0.00,WeatherDisplay:10.37,2013-12-13 14:03:00,
2013-12-13 08:13:00,18.4,16.0,30.14,NE,45,1.0,3.0,90,0.00,CLR,,0.00,WeatherDisplay:10.37,2013-12-13 14:13:00,
2013-12-13 08:23:00,21.5,16.6,30.14,NE,53,2.0,5.0,81,0.00,CLR,,0.00,WeatherDisplay:10.37,2013-12-13 14:23:00,
2013-12-13 08:33:00,20.0,13.9,30.14,ENE,60,8.0,13.0,77,0.00,CLR,,0.00,WeatherDisplay:10.37,2013-12-13 14:33:00,
2013-12-13 08:43:00,19.0,13.6,30.14,NE,55,6.0,15.0,79,0.00,CLR,,0.00,WeatherDisplay:10.37,2013-12-13 14:43:00,
2013-12-13 08:53:00,19.2,14.3,30.13,ENE,61,6.0,14.0,81,0.00,CLR,,0.00,WeatherDisplay:10.37,2013-12-13 14:53:00,
2013-12-13 09:03:00,19.8,14.0,30.14,NE,54,5.0,9.0,78,0.00,CLR,,0.00,WeatherDisplay:10.37,2013-12-13 15:03:00,
2013-12-13 09:13:00,20.7,14.6,30.14,ENE,58,6.0,14.0,77,0.00,CLR,,0.00,WeatherDisplay:10.37,2013-12-13 15:13:00,
2013-12-13 09:23:00,21.4,14.7,30.14,ENE,58,7.0,10.0,75,0.00,CLR,,0.00,WeatherDisplay:10.37,2013-12-13 15:23:00,
2013-12-13 09:33:00,19.4,13.4,30.15,ENE,62,3.0,9.0,77,0.00,CLR,,0.00,WeatherDisplay:10.37,2013-12-13 15:33:00,
2013-12-13 09:43:00,19.0,13.3,30.14,East,83,3.0,10.0,78,0.00,CLR,,0.00,WeatherDisplay:10.37,2013-12-13 15:43:00,
2013-12-13 09:53:00,19.3,13.8,30.15,ENE,67,1.0,8.0,79,0.00,CLR,,0.00,WeatherDisplay:10.37,2013-12-13 15:53:00,
2013-12-13 10:03:00,19.4,13.7,30.14,East,79,3.0,8.0,78,0.00,CLR,,0.00,WeatherDisplay:10.37,2013-12-13 16:03:00,
2013-12-13 10:13:00,21.0,14.6,30.14,East,79,6.0,9.0,76,0.00,CLR,,0.00,WeatherDisplay:10.37,2013-12-13 16:13:00,
2013-12-13 10:23:00,20.1,13.8,30.14,ENE,64,7.0,13.0,76,0.00,CLR,,0.00,WeatherDisplay:10.37,2013-12-13 16:23:00,
2013-12-13 10:33:00,19.8,13.7,30.14,ENE,73,7.0,13.0,77,0.00,CLR,,0.00,WeatherDisplay:10.37,2013-12-13 16:33:00,
2013-12-13 10:43:00,20.3,13.9,30.14,ENE,63,5.0,12.0,76,0.00,CLR,,0.00,WeatherDisplay:10.37,2013-12-13 16:43:00,
2013-12-13 10:53:00,20.1,13.5,30.14,East,85,6.0,15.0,75,0.00,CLR,,0.00,WeatherDisplay:10.37,2013-12-13 16:53:00,
2013-12-13 11:03:00,19.9,13.6,30.14,ENE,64,3.0,16.0,76,0.00,CLR,,0.00,WeatherDisplay:10.37,2013-12-13 17:03:00,
2013-12-13 11:13:00,20.3,13.9,30.13,East,85,7.0,10.0,76,0.00,CLR,,0.00,WeatherDisplay:10.37,2013-12-13 17:13:00,
2013-12-13 11:23:00,20.5,14.1,30.12,ENE,67,7.0,12.0,76,0.00,CLR,,0.00,WeatherDisplay:10.37,2013-12-13 17:23:00,
2013-12-13 11:33:00,20.3,14.6,30.12,ENE,59,6.0,12.0,78,0.00,CLR,,0.00,WeatherDisplay:10.37,2013-12-13 17:33:00,
2013-12-13 11:43:00,20.9,14.8,30.12,NE,42,8.0,15.0,77,0.00,CLR,,0.00,WeatherDisplay:10.37,2013-12-13 17:43:00,
2013-12-13 11:53:00,20.5,14.7,30.12,NE,40,8.0,14.0,78,0.00,CLR,,0.00,WeatherDisplay:10.37,2013-12-13 17:53:00,
2013-12-13 12:03:00,21.2,15.7,30.11,NE,48,5.0,8.0,79,0.00,CLR,,0.00,WeatherDisplay:10.37,2013-12-13 18:03:00,
2013-12-13 12:13:00,21.2,15.7,30.10,ENE,60,8.0,17.0,79,0.00,CLR,,0.00,WeatherDisplay:10.37,2013-12-13 18:13:00,
2013-12-13 12:23:00,21.7,16.2,30.10,NE,54,10.0,21.0,79,0.00,CLR,,0.00,WeatherDisplay:10.37,2013-12-13 18:23:00,
2013-12-13 12:33:00,21.6,16.1,30.10,ENE,62,10.0,17.0,79,0.00,CLR,,0.00,WeatherDisplay:10.37,2013-12-13 18:33:00,
2013-12-13 12:43:00,21.6,16.3,30.11,ENE,72,7.0,18.0,80,0.00,CLR,,0.00,WeatherDisplay:10.37,2013-12-13 18:43:00,
2013-12-13 12:53:00,21.9,17.0,30.10,ENE,72,5.0,14.0,81,0.00,CLR,,0.00,WeatherDisplay:10.37,2013-12-13 18:53:00,
2013-12-13 13:03:00,22.1,17.2,30.11,ENE,64,2.0,13.0,81,0.00,CLR,,0.00,WeatherDisplay:10.37,2013-12-13 19:03:00,
2013-12-13 13:13:00,22.8,17.6,30.11,ENE,75,6.0,14.0,80,0.00,CLR,,0.00,WeatherDisplay:10.37,2013-12-13 19:13:00,
2013-12-13 13:23:00,23.6,18.3,30.10,ENE,71,5.0,13.0,80,0.00,CLR,,0.00,WeatherDisplay:10.37,2013-12-13 19:23:00,
2013-12-13 13:33:00,23.2,17.6,30.10,NE,51,9.0,18.0,79,0.00,CLR,,0.00,WeatherDisplay:10.37,2013-12-13 19:33:00,
2013-12-13 13:43:00,23.0,17.5,30.10,NE,52,6.0,15.0,79,0.00,CLR,,0.00,WeatherDisplay:10.37,2013-12-13 19:43:00,
2013-12-13 13:53:00,23.1,17.6,30.10,East,87,7.0,15.0,79,0.00,CLR,,0.00,WeatherDisplay:10.37,2013-12-13 19:53:00,
2013-12-13 14:03:00,23.2,17.9,30.10,NNE,28,6.0,13.0,80,0.00,CLR,,0.00,WeatherDisplay:10.37,2013-12-13 20:03:00,
2013-12-13 14:13:00,23.2,18.2,30.10,NE,45,3.0,14.0,81,0.00,CLR,,0.00,WeatherDisplay:10.37,2013-12-13 20:13:00,
2013-12-13 14:23:00,22.8,17.9,30.10,NE,36,7.0,18.0,81,0.00,CLR,,0.00,WeatherDisplay:10.37,2013-12-13 20:23:00,
2013-12-13 14:33:00,22.6,17.9,30.10,NE,46,5.0,18.0,82,0.00,CLR,,0.00,WeatherDisplay:10.37,2013-12-13 20:33:00,
2013-12-13 14:43:00,22.3,17.9,30.10,NE,42,7.0,14.0,83,0.00,CLR,,0.00,WeatherDisplay:10.37,2013-12-13 20:43:00,
2013-12-13 14:53:00,22.1,18.0,30.10,NE,38,6.0,13.0,84,0.00,CLR,,0.00,WeatherDisplay:10.37,2013-12-13 20:53:00,
2013-12-13 15:03:00,22.3,18.7,30.10,NE,36,6.0,12.0,86,0.00,CLR,,0.00,WeatherDisplay:10.37,2013-12-13 21:03:00,
2013-12-13 15:13:00,22.3,19.0,30.10,NNE,29,6.0,12.0,87,0.00,CLR,,0.00,WeatherDisplay:10.37,2013-12-13 21:13:00,
2013-12-13 15:23:00,22.3,19.3,30.10,NE,55,7.0,15.0,88,0.00,CLR,,0.00,WeatherDisplay:10.37,2013-12-13 21:23:00,
2013-12-13 15:33:00,22.1,19.1,30.11,NE,53,8.0,16.0,88,0.00,CLR,,0.00,WeatherDisplay:10.37,2013-12-13 21:33:00,
2013-12-13 15:43:00,21.9,19.2,30.11,NE,47,9.0,22.0,89,0.00,CLR,,0.00,WeatherDisplay:10.37,2013-12-13 21:43:00,
2013-12-13 15:53:00,21.8,19.1,30.11,ENE,59,10.0,21.0,89,0.00,CLR,,0.00,WeatherDisplay:10.37,2013-12-13 21:53:00,
2013-12-13 16:03:00,21.7,19.3,30.11,ENE,60,7.0,17.0,90,0.00,CLR,,0.00,WeatherDisplay:10.37,2013-12-13 22:03:00,
2013-12-13 16:13:00,21.7,19.3,30.11,ENE,67,6.0,20.0,90,0.00,CLR,,0.00,WeatherDisplay:10.37,2013-12-13 22:13:00,
2013-12-13 16:23:00,21.6,18.8,30.11,ENE,59,8.0,20.0,89,0.00,CLR,,0.00,WeatherDisplay:10.37,2013-12-13 22:23:00,
2013-12-13 16:33:00,21.4,18.9,30.12,ENE,59,6.0,20.0,90,0.00,CLR,,0.00,WeatherDisplay:10.37,2013-12-13 22:33:00,
2013-12-13 16:43:00,21.4,18.9,30.11,ENE,58,6.0,16.0,90,0.00,CLR,,0.00,WeatherDisplay:10.37,2013-12-13 22:43:00,
2013-12-13 16:53:00,21.4,18.9,30.12,NE,45,7.0,22.0,90,0.00,CLR,,0.00,WeatherDisplay:10.37,2013-12-13 22:53:00,
2013-12-13 17:03:00,21.4,18.9,30.12,NE,56,7.0,15.0,90,0.00,CLR,,0.00,WeatherDisplay:10.37,2013-12-13 23:03:00,
2013-12-13 17:13:00,21.2,18.7,30.12,NE,52,3.0,23.0,90,0.00,CLR,,0.00,WeatherDisplay:10.37,2013-12-13 23:13:00,
2013-12-13 17:23:00,20.2,17.2,30.12,NNE,24,6.0,20.0,88,0.00,CLR,,0.00,WeatherDisplay:10.37,2013-12-13 23:23:00,
2013-12-13 17:33:00,19.8,16.8,30.12,NE,49,8.0,14.0,88,0.00,CLR,,0.00,WeatherDisplay:10.37,2013-12-13 23:33:00,
2013-12-13 17:43:00,19.8,17.0,30.12,NE,45,8.0,17.0,89,0.00,CLR,,0.00,WeatherDisplay:10.37,2013-12-13 23:43:00,
2013-12-13 17:53:00,19.4,16.4,30.12,NE,36,9.0,20.0,88,0.00,CLR,,0.00,WeatherDisplay:10.37,2013-12-13 23:53:00,
2013-12-13 18:03:00,18.7,15.7,30.13,NNE,31,9.0,22.0,88,0.00,CLR,,0.00,WeatherDisplay:10.37,2013-12-14 00:03:00,
2013-12-13 18:13:00,18.4,15.4,30.13,NE,50,10.0,21.0,88,0.00,CLR,,0.00,WeatherDisplay:10.37,2013-12-14 00:13:00,
2013-12-13 18:23:00,18.3,15.4,30.13,NE,45,10.0,18.0,88,0.00,CLR,,0.00,WeatherDisplay:10.37,2013-12-14 00:23:00,
2013-12-13 18:33:00,17.6,14.4,30.14,NE,38,3.0,24.0,87,0.00,CLR,,0.00,WeatherDisplay:10.37,2013-12-14 00:33:00,
2013-12-13 18:43:00,17.2,14.0,30.14,NNE,27,7.0,18.0,87,0.00,CLR,,0.00,WeatherDisplay:10.37,2013-12-14 00:43:00,
2013-12-13 18:53:00,16.9,13.7,30.14,NNE,28,5.0,17.0,87,0.00,CLR,,0.00,WeatherDisplay:10.37,2013-12-14 00:53:00,
2013-12-13 19:03:00,16.7,13.2,30.14,NNE,31,6.0,15.0,86,0.00,CLR,,0.00,WeatherDisplay:10.37,2013-12-14 01:03:00,
2013-12-13 19:13:00,16.5,13.3,30.14,North,10,8.0,28.0,87,0.00,CLR,,0.00,WeatherDisplay:10.37,2013-12-14 01:13:00,
2013-12-13 19:23:00,16.5,13.3,30.14,NE,38,9.0,20.0,87,0.00,CLR,,0.00,WeatherDisplay:10.37,2013-12-14 01:23:00,
2013-12-13 19:33:00,16.5,13.3,30.15,NE,52,9.0,21.0,87,0.00,CLR,,0.00,WeatherDisplay:10.37,2013-12-14 01:33:00,
2013-12-13 19:43:00,16.5,13.3,30.15,NE,39,12.0,28.0,87,0.00,CLR,,0.00,WeatherDisplay:10.37,2013-12-14 01:43:00,
2013-12-13 19:53:00,16.5,13.3,30.15,NNE,28,12.0,28.0,87,0.00,CLR,,0.00,WeatherDisplay:10.37,2013-12-14 01:53:00,
2013-12-13 20:03:00,16.6,13.4,30.15,NNE,30,15.0,26.0,87,0.00,CLR,,0.00,WeatherDisplay:10.37,2013-12-14 02:03:00,
2013-12-13 20:13:00,16.7,13.5,30.16,NE,41,5.0,15.0,87,0.00,CLR,,0.00,WeatherDisplay:10.37,2013-12-14 02:13:00,
2013-12-13 20:23:00,16.7,13.5,30.15,North,6,9.0,15.0,87,0.00,CLR,,0.00,WeatherDisplay:10.37,2013-12-14 02:23:00,
2013-12-13 20:33:00,16.6,13.4,30.15,NE,41,7.0,23.0,87,0.00,CLR,,0.00,WeatherDisplay:10.37,2013-12-14 02:33:00,
2013-12-13 20:43:00,16.6,13.4,30.16,NNE,24,13.0,30.0,87,0.00,CLR,,0.00,WeatherDisplay:10.37,2013-12-14 02:43:00,
2013-12-13 20:53:00,16.5,13.6,30.15,NE,36,9.0,20.0,88,0.00,CLR,,0.00,WeatherDisplay:10.37,2013-12-14 02:53:00,
2013-12-13 21:03:00,16.5,13.6,30.15,NNE,20,9.0,21.0,88,0.00,CLR,,0.00,WeatherDisplay:10.37,2013-12-14 03:03:00,
2013-12-13 21:13:00,16.5,13.6,30.15,NE,41,12.0,24.0,88,0.00,CLR,,0.00,WeatherDisplay:10.37,2013-12-14 03:13:00,
2013-12-13 21:23:00,16.5,13.6,30.15,East,85,10.0,21.0,88,0.00,CLR,,0.00,WeatherDisplay:10.37,2013-12-14 03:23:00,
2013-12-13 21:33:00,16.6,13.9,30.15,NE,34,7.0,18.0,89,0.00,CLR,,0.00,WeatherDisplay:10.37,2013-12-14 03:33:00,
2013-12-13 21:43:00,16.7,13.8,30.15,NNE,27,9.0,20.0,88,0.00,CLR,,0.00,WeatherDisplay:10.37,2013-12-14 03:43:00,
2013-12-13 21:53:00,16.7,14.0,30.15,NNE,27,12.0,22.0,89,0.00,CLR,,0.00,WeatherDisplay:10.37,2013-12-14 03:53:00,
2013-12-13 22:03:00,16.7,14.0,30.15,NE,55,15.0,26.0,89,0.00,CLR,,0.00,WeatherDisplay:10.37,2013-12-14 04:03:00,
2013-12-13 22:13:00,16.7,14.0,30.14,NE,48,10.0,23.0,89,0.00,CLR,,0.00,WeatherDisplay:10.37,2013-12-14 04:13:00,
2013-12-13 22:23:00,16.9,14.2,30.15,North,2,12.0,21.0,89,0.00,CLR,,0.00,WeatherDisplay:10.37,2013-12-14 04:23:00,
2013-12-13 22:33:00,16.9,14.5,30.14,NE,37,10.0,18.0,90,0.00,CLR,,0.00,WeatherDisplay:10.37,2013-12-14 04:33:00,
2013-12-13 22:43:00,17.1,14.6,30.14,NE,50,9.0,20.0,90,0.00,CLR,,0.00,WeatherDisplay:10.37,2013-12-14 04:43:00,
2013-12-13 22:53:00,17.0,14.3,30.14,NE,45,9.0,23.0,89,0.00,CLR,,0.00,WeatherDisplay:10.37,2013-12-14 04:53:00,
2013-12-13 23:03:00,16.9,14.2,30.14,NE,45,9.0,15.0,89,0.00,CLR,,0.00,WeatherDisplay:10.37,2013-12-14 05:03:00,
2013-12-13 23:13:00,16.9,14.3,30.14,NE,51,8.0,25.0,89,0.00,CLR,,0.00,WeatherDisplay:10.37,2013-12-14 05:13:00,
2013-12-13 23:23:00,17.1,14.4,30.14,NE,42,8.0,16.0,89,0.00,CLR,,0.00,WeatherDisplay:10.37,2013-12-14 05:23:00,
2013-12-13 23:33:00,17.1,14.4,30.13,NE,49,12.0,20.0,89,0.00,CLR,,0.00,WeatherDisplay:10.37,2013-12-14 05:33:00,
2013-12-13 23:43:00,17.2,14.5,30.13,NE,47,8.0,26.0,89,0.00,CLR,,0.00,WeatherDisplay:10.37,2013-12-14 05:43:00,
2013-12-13 23:53:00,17.4,15.0,30.13,NE,44,10.0,28.0,90,0.00,CLR,,0.00,WeatherDisplay:10.37,2013-12-14 05:53:00,